Odonnell Spur, Wyoming
Current Conditions -  °F | °C
As of 5:35 PM on Tuesday 25 Nov 2014 (Local Time) from KPOY Reporting Station
Light Snow Light Snow  
Wind Chill: 11°   Ceiling: 800
Heat Index: 27°   Visibility: 2mi
Dew Point: 25°   Wind: 26mph
Humidity: 93%   Direction: 330°NNW
Pressure: 30.03"   Gusts: 30mph
Location:  44.8625°N, 108.965°W
Report Text: KPOY 260035Z AUTO 33023G26KT 2SM -SN OVC008 M03/M04 A3003 RMK AO2
Loading
Personal Weather Stations






























Interactive Weather Map New forecast layout! Learn more

10-Day Weather Forecast

Advertisements
Track Severe Weather on mobile